Time;durP1;ratioP1;P1;durP2;ratioP2;P2;SDS_P1;SDS_P2;PMS_P1;PMS_P2;Temp;Humidity;BMP_temperature;BMP_pressure;BME280_temperature;BME280_humidity;BME280_pressure;Samples;Min_cycle;Max_cycle;Signal;HPM_P1;HPM_P2
2021/03/22 00:02:17;;;;;;;61.75;6.93;;;;;;;1.41;100.00;97861.09;5067162;28;20044;-75
2021/03/22 00:04:44;;;;;;;46.00;6.03;;;;;;;1.44;100.00;97852.59;5067144;28;20503;-75
2021/03/22 00:07:10;;;;;;;63.33;6.78;;;;;;;1.48;100.00;97854.50;5068155;28;20051;-75
2021/03/22 00:09:36;;;;;;;73.65;7.95;;;;;;;1.52;100.00;97857.50;5068468;28;20415;-75
2021/03/22 00:12:02;;;;;;;40.47;5.85;;;;;;;1.48;100.00;97859.84;5050009;28;20049;-75
2021/03/22 00:14:28;;;;;;;52.88;6.38;;;;;;;1.46;100.00;97858.50;5068507;28;20708;-75
2021/03/22 00:16:54;;;;;;;58.63;7.13;;;;;;;1.42;100.00;97863.50;5068157;28;20059;-75
2021/03/22 00:19:20;;;;;;;57.25;6.38;;;;;;;1.45;100.00;97872.88;5068161;28;20055;-75
2021/03/22 00:21:46;;;;;;;41.13;5.63;;;;;;;1.46;100.00;97875.31;5067483;28;20059;-75
2021/03/22 00:24:12;;;;;;;41.50;5.57;;;;;;;1.43;100.00;97859.81;5067829;28;20044;-74
2021/03/22 00:26:38;;;;;;;53.63;6.45;;;;;;;1.45;100.00;97855.00;5049509;28;20079;-75
2021/03/22 00:29:04;;;;;;;64.10;7.97;;;;;;;1.49;100.00;97874.00;5048247;28;20053;-75
2021/03/22 00:31:31;;;;;;;53.85;6.40;;;;;;;1.53;100.00;97862.56;5048224;28;20056;-75
2021/03/22 00:33:57;;;;;;;59.55;6.68;;;;;;;1.53;100.00;97861.75;5048375;28;20049;-74
2021/03/22 00:36:25;;;;;;;55.75;6.50;;;;;;;1.51;100.00;97864.69;5048266;28;20063;-75
2021/03/22 00:38:51;;;;;;;46.78;5.72;;;;;;;1.54;100.00;97871.38;5069771;28;20436;-75
2021/03/22 00:41:17;;;;;;;50.38;6.57;;;;;;;1.53;100.00;97870.56;5070850;28;20053;-75
2021/03/22 00:43:43;;;;;;;49.70;5.95;;;;;;;1.53;100.00;97865.25;5068660;28;20052;-75
2021/03/22 00:46:09;;;;;;;51.88;6.43;;;;;;;1.60;100.00;97878.41;5062705;28;20051;-75
2021/03/22 00:48:36;;;;;;;54.72;6.85;;;;;;;1.57;100.00;97887.72;5081535;28;20401;-75
2021/03/22 00:51:06;;;;;;;43.38;5.57;;;;;;;1.60;100.00;97873.84;5067984;28;20051;-74
2021/03/22 00:53:34;;;;;;;54.47;6.32;;;;;;;1.61;100.00;97880.78;5054101;28;20071;-75
2021/03/22 00:56:00;;;;;;;46.90;7.05;;;;;;;1.57;100.00;97881.56;5050409;28;20052;-75
2021/03/22 00:58:27;;;;;;;49.50;6.60;;;;;;;1.57;100.00;97884.22;5064023;28;20086;-75
2021/03/22 01:00:57;;;;;;;49.72;7.10;;;;;;;1.53;100.00;97878.56;5062128;28;20048;-75
2021/03/22 01:03:27;;;;;;;47.13;6.00;;;;;;;1.55;100.00;97876.44;5069048;28;20524;-75
2021/03/22 01:05:54;;;;;;;40.80;5.30;;;;;;;1.56;100.00;97869.25;5070174;28;20516;-75
2021/03/22 01:08:23;;;;;;;54.50;6.10;;;;;;;1.52;100.00;97862.84;5068830;28;20047;-75
2021/03/22 01:10:54;;;;;;;50.80;5.68;;;;;;;1.55;100.00;97868.44;5070052;28;20054;-75
2021/03/22 01:13:33;;;;;;;53.60;6.05;;;;;;;1.63;100.00;97883.19;5069533;28;20059;-75
2021/03/22 01:16:18;;;;;;;40.90;5.60;;;;;;;1.54;100.00;97874.88;5077219;28;20040;-75
2021/03/22 01:18:49;;;;;;;60.42;6.45;;;;;;;1.52;100.00;97878.84;5062015;28;20049;-75
2021/03/22 01:21:38;;;;;;;61.55;7.85;;;;;;;1.49;100.00;97877.47;5049305;28;20047;-75
2021/03/22 01:24:07;;;;;;;49.13;6.60;;;;;;;1.50;100.00;97868.41;5049851;28;20048;-75
2021/03/22 01:26:35;;;;;;;52.10;6.28;;;;;;;1.53;100.00;97875.09;5050148;28;20045;-75
2021/03/22 01:29:09;;;;;;;44.40;5.68;;;;;;;1.58;100.00;97881.28;5049495;28;20507;-75
2021/03/22 01:31:35;;;;;;;50.40;6.50;;;;;;;1.55;100.00;97875.69;5050061;28;20127;-75
2021/03/22 01:34:02;;;;;;;42.65;6.28;;;;;;;1.55;100.00;97865.00;5049855;28;20106;-74
2021/03/22 01:36:30;;;;;;;42.75;6.15;;;;;;;1.55;100.00;97852.44;5049714;28;20044;-75
2021/03/22 01:39:07;;;;;;;43.38;5.78;;;;;;;1.54;100.00;97847.38;5048411;28;20044;-74
2021/03/22 01:41:52;;;;;;;50.53;7.00;;;;;;;1.51;100.00;97853.22;5049934;28;20040;-75
2021/03/22 01:44:26;;;;;;;37.22;5.95;;;;;;;1.50;100.00;97854.25;5049506;28;20041;-75
2021/03/22 01:46:57;;;;;;;39.55;5.18;;;;;;;1.42;100.00;97833.38;5048505;28;20041;-74
2021/03/22 01:49:28;;;;;;;47.72;5.82;;;;;;;1.40;100.00;97851.47;5079637;28;20056;-73
2021/03/22 01:51:55;;;;;;;44.70;5.68;;;;;;;1.34;100.00;97831.97;5056750;28;20052;-74
2021/03/22 01:54:21;;;;;;;53.00;7.32;;;;;;;1.36;100.00;97845.88;5051080;28;20045;-74
2021/03/22 01:56:53;;;;;;;47.20;6.13;;;;;;;1.38;100.00;97853.59;5049852;28;20119;-74
2021/03/22 01:59:29;;;;;;;53.85;6.85;;;;;;;1.36;100.00;97839.72;5048325;28;20095;-75
2021/03/22 02:02:00;;;;;;;38.47;5.70;;;;;;;1.36;100.00;97847.72;5048508;28;20056;-74
2021/03/22 02:04:29;;;;;;;45.53;5.72;;;;;;;1.36;100.00;97832.53;5047561;28;20048;-74
2021/03/22 02:06:56;;;;;;;51.40;5.22;;;;;;;1.36;100.00;97835.19;5048953;28;20041;-74
2021/03/22 02:09:22;;;;;;;44.28;5.95;;;;;;;1.39;100.00;97828.56;5031298;28;20041;-75
2021/03/22 02:11:48;;;;;;;54.28;7.30;;;;;;;1.42;100.00;97839.50;5049388;28;20072;-75
2021/03/22 02:14:14;;;;;;;43.67;6.25;;;;;;;1.45;100.00;97838.19;5049581;28;20067;-75
2021/03/22 02:17:07;;;;;;;56.95;5.95;;;;;;;1.44;100.00;97833.94;5047650;28;20049;-75
2021/03/22 02:20:11;;;;;;;37.45;5.97;;;;;;;1.43;100.00;97832.31;5049030;28;20076;-74
2021/03/22 02:23:08;;;;;;;41.47;5.70;;;;;;;1.45;100.00;97843.53;5048630;28;20053;-75
2021/03/22 02:26:05;;;;;;;51.83;6.65;;;;;;;1.44;100.00;97833.94;5031243;28;20055;-74
2021/03/22 02:28:52;;;;;;;53.95;6.05;;;;;;;1.48;100.00;97840.38;5049561;28;20030;-75
2021/03/22 02:31:43;;;;;;;41.78;6.35;;;;;;;1.47;100.00;97836.09;5047508;28;20131;-75
2021/03/22 02:34:33;;;;;;;40.20;6.00;;;;;;;1.44;100.00;97833.94;5049081;28;20052;-75
2021/03/22 02:36:59;;;;;;;48.60;6.55;;;;;;;1.41;100.00;97840.59;5048779;28;20049;-74
2021/03/22 02:39:31;;;;;;;50.35;7.43;;;;;;;1.38;100.00;97840.25;5047948;28;20049;-75
2021/03/22 02:41:59;;;;;;;55.63;6.63;;;;;;;1.43;100.00;97851.78;5048396;28;20048;-75
2021/03/22 02:44:32;;;;;;;44.25;7.10;;;;;;;1.43;100.00;97840.31;5047566;28;20041;-75
2021/03/22 02:47:27;;;;;;;58.33;7.22;;;;;;;1.46;100.00;97837.16;5046875;28;20135;-74
2021/03/22 02:49:56;;;;;;;44.67;6.15;;;;;;;1.41;100.00;97839.78;5047355;28;20041;-74
2021/03/22 02:52:53;;;;;;;39.75;6.30;;;;;;;1.44;100.00;97848.09;5047751;28;20045;-74
2021/03/22 02:55:25;;;;;;;47.30;6.93;;;;;;;1.43;100.00;97838.47;5047039;28;20045;-74
2021/03/22 02:57:57;;;;;;;56.95;7.10;;;;;;;1.50;100.00;97846.25;5048434;28;20041;-74
2021/03/22 03:00:29;;;;;;;48.95;6.82;;;;;;;1.49;100.00;97839.31;5048815;28;20029;-74
2021/03/22 03:02:59;;;;;;;41.40;6.35;;;;;;;1.48;100.00;97843.84;5052566;28;20048;-74
2021/03/22 03:05:28;;;;;;;49.72;7.45;;;;;;;1.47;100.00;97842.22;5051316;28;20045;-74
2021/03/22 03:08:00;;;;;;;49.33;6.95;;;;;;;1.46;100.00;97851.31;5052452;28;20037;-74
2021/03/22 03:10:29;;;;;;;48.10;7.10;;;;;;;1.48;100.00;97845.69;5051232;28;20132;-74
2021/03/22 03:12:55;;;;;;;41.97;6.93;;;;;;;1.53;100.00;97851.09;5051340;28;20037;-74
2021/03/22 03:15:22;;;;;;;39.55;6.55;;;;;;;1.52;100.00;97846.81;5050864;28;20040;-75
2021/03/22 03:17:49;;;;;;;45.13;6.70;;;;;;;1.55;100.00;97846.34;5051943;28;20041;-75
2021/03/22 03:20:28;;;;;;;38.88;6.53;;;;;;;1.52;100.00;97854.81;5039828;28;20466;-75
2021/03/22 03:22:56;;;;;;;51.63;7.70;;;;;;;1.55;100.00;97849.00;5066400;28;20045;-75
2021/03/22 03:25:24;;;;;;;41.88;6.90;;;;;;;1.52;100.00;97844.97;5063441;28;20094;-73
2021/03/22 03:27:51;;;;;;;46.92;7.90;;;;;;;1.57;100.00;97849.53;5049779;28;20454;-75
2021/03/22 03:30:23;;;;;;;46.60;7.53;;;;;;;1.54;100.00;97847.38;5050663;28;20045;-74
2021/03/22 03:32:51;;;;;;;58.85;8.38;;;;;;;1.55;100.00;97847.13;5072174;28;20041;-74
2021/03/22 03:35:19;;;;;;;47.00;7.13;;;;;;;1.53;100.00;97845.75;5053984;28;20405;-74
2021/03/22 03:37:48;;;;;;;51.47;6.72;;;;;;;1.53;100.00;97846.56;5070466;28;20052;-74
2021/03/22 03:40:31;;;;;;;47.90;6.75;;;;;;;1.59;100.00;97850.09;5076651;28;20040;-76
2021/03/22 03:42:58;;;;;;;41.75;6.47;;;;;;;1.60;100.00;97855.16;5062653;28;20048;-75
2021/03/22 03:45:27;;;;;;;57.03;6.65;;;;;;;1.56;100.00;97842.59;5071606;28;20502;-75
2021/03/22 03:48:09;;;;;;;57.03;7.93;;;;;;;1.60;100.00;97851.72;5071773;28;20044;-75
2021/03/22 03:50:35;;;;;;;52.03;6.78;;;;;;;1.63;100.00;97857.34;5070147;28;20573;-74
2021/03/22 03:53:01;;;;;;;37.65;6.38;;;;;;;1.60;100.00;97860.50;5071736;28;20044;-74
2021/03/22 03:55:31;;;;;;;41.05;6.47;;;;;;;1.60;100.00;97851.72;5064422;28;20037;-74
2021/03/22 03:57:57;;;;;;;41.72;5.85;;;;;;;1.54;100.00;97840.19;5070323;28;20044;-74
2021/03/22 04:00:23;;;;;;;46.90;6.85;;;;;;;1.63;100.00;97852.00;5071670;28;20052;-75
2021/03/22 04:02:51;;;;;;;41.58;6.38;;;;;;;1.68;100.00;97861.91;5071696;28;20449;-75
2021/03/22 04:05:19;;;;;;;45.25;6.07;;;;;;;1.64;100.00;97860.81;5071092;28;20049;-75
2021/03/22 04:07:45;;;;;;;42.40;6.20;;;;;;;1.61;100.00;97858.63;5070892;28;20044;-74
2021/03/22 04:10:13;;;;;;;42.05;6.85;;;;;;;1.62;100.00;97853.06;5069960;28;20036;-74
2021/03/22 04:12:41;;;;;;;39.15;5.80;;;;;;;1.59;100.00;97850.91;5070367;28;20048;-74
2021/03/22 04:15:13;;;;;;;48.35;7.28;;;;;;;1.54;100.00;97850.03;5071111;28;20044;-74
2021/03/22 04:17:40;;;;;;;45.33;7.13;;;;;;;1.62;100.00;97861.06;5069633;28;20057;-73
2021/03/22 04:20:07;;;;;;;42.53;6.95;;;;;;;1.63;100.00;97867.19;5071349;28;20040;-75
2021/03/22 04:22:35;;;;;;;44.83;6.60;;;;;;;1.68;100.00;97864.56;5066786;22;20551;-78
2021/03/22 04:25:06;;;;;;;50.00;7.68;;;;;;;1.65;100.00;97871.22;5021387;28;20065;-77
2021/03/22 04:27:34;;;;;;;36.17;5.97;;;;;;;1.68;100.00;97861.91;5025037;28;20039;-78
2021/03/22 04:30:00;;;;;;;44.38;5.68;;;;;;;1.64;100.00;97866.16;5047253;28;20048;-78
2021/03/22 04:32:29;;;;;;;33.55;5.60;;;;;;;1.63;100.00;97867.19;5038889;28;20053;-77
2021/03/22 04:34:57;;;;;;;37.33;6.53;;;;;;;1.71;100.00;97866.75;5014475;28;20045;-77
2021/03/22 04:37:24;;;;;;;45.55;7.03;;;;;;;1.65;100.00;97868.56;4997509;28;20042;-77
2021/03/22 04:39:51;;;;;;;50.83;6.35;;;;;;;1.69;100.00;97860.84;5029154;28;20116;-78
2021/03/22 04:42:18;;;;;;;34.75;6.22;;;;;;;1.67;100.00;97869.13;5017924;28;20041;-77
2021/03/22 04:44:44;;;;;;;37.75;6.03;;;;;;;1.68;100.00;97865.38;5015199;28;20140;-77
2021/03/22 04:47:10;;;;;;;50.58;6.18;;;;;;;1.68;100.00;97877.91;5014647;28;20048;-77
2021/03/22 04:49:39;;;;;;;32.58;5.53;;;;;;;1.68;100.00;97873.38;5030988;28;20042;-78
2021/03/22 04:52:06;;;;;;;43.75;5.68;;;;;;;1.70;100.00;97875.81;4996857;28;20376;-78
2021/03/22 04:54:32;;;;;;;33.45;5.82;;;;;;;1.70;100.00;97875.81;5014360;28;20041;-78
2021/03/22 04:57:37;;;;;;;36.60;6.22;;;;;;;1.70;100.00;97875.81;5033191;28;20052;-77
2021/03/22 05:00:13;;;;;;;44.60;5.75;;;;;;;1.66;100.00;97878.19;4951759;28;20054;-78
2021/03/22 05:02:39;;;;;;;53.08;6.50;;;;;;;1.71;100.00;97880.91;5021062;28;20053;-77
2021/03/22 05:05:08;;;;;;;45.97;6.63;;;;;;;1.70;100.00;97884.59;4998070;28;20292;-78
2021/03/22 05:07:34;;;;;;;46.10;5.68;;;;;;;1.67;100.00;97887.81;4997558;28;20045;-79
2021/03/22 05:10:02;;;;;;;43.17;6.00;;;;;;;1.71;100.00;97896.09;5032028;28;20042;-78
2021/03/22 05:12:31;;;;;;;29.00;5.28;;;;;;;1.71;100.00;97880.91;5013118;28;20562;-78
2021/03/22 05:14:57;;;;;;;41.55;6.10;;;;;;;1.74;100.00;97891.06;5014484;28;20045;-78
2021/03/22 05:17:23;;;;;;;49.10;6.13;;;;;;;1.81;100.00;97888.19;4997042;28;20041;-78
2021/03/22 05:19:50;;;;;;;45.53;6.18;;;;;;;1.83;100.00;97891.44;5001121;28;20045;-78
2021/03/22 05:22:19;;;;;;;37.33;5.25;;;;;;;1.81;100.00;97890.84;5031032;28;20033;-78
2021/03/22 05:24:45;;;;;;;45.65;6.25;;;;;;;1.79;100.00;97898.31;5037506;28;20444;-78
2021/03/22 05:27:11;;;;;;;38.92;5.93;;;;;;;1.80;100.00;97900.75;5018136;28;20053;-78
2021/03/22 05:29:39;;;;;;;46.22;6.22;;;;;;;1.80;100.00;97900.75;5020546;28;20416;-78
2021/03/22 05:32:34;;;;;;;52.80;5.82;;;;;;;1.83;100.00;97902.09;5040056;28;20033;-77
2021/03/22 05:35:06;;;;;;;44.97;6.30;;;;;;;1.82;100.00;97901.28;5021893;28;20116;-78
2021/03/22 05:37:33;;;;;;;41.13;6.32;;;;;;;1.82;100.00;97906.63;5026709;28;20552;-78
2021/03/22 05:39:59;;;;;;;42.22;5.60;;;;;;;1.91;100.00;97911.53;5041553;28;20038;-79
2021/03/22 05:42:44;;;;;;;36.55;5.10;;;;;;;1.91;100.00;97904.28;5021794;28;20485;-79
2021/03/22 05:45:27;;;;;;;31.23;4.57;;;;;;;1.92;100.00;97913.13;4999533;28;20112;-78
2021/03/22 05:48:12;;;;;;;43.35;5.93;;;;;;;1.99;100.00;97913.75;5014150;28;20128;-78
2021/03/22 05:50:55;;;;;;;48.53;6.35;;;;;;;2.00;100.00;97913.47;5018124;28;20049;-78
2021/03/22 05:53:40;;;;;;;31.08;5.63;;;;;;;1.99;100.00;97925.19;5013357;28;20048;-77
2021/03/22 05:56:17;;;;;;;36.53;5.20;;;;;;;1.99;100.00;97914.53;5025181;28;20053;-78
2021/03/22 05:59:03;;;;;;;41.67;5.70;;;;;;;1.92;100.00;97913.13;5017841;28;20503;-77
2021/03/22 06:01:36;;;;;;;36.00;5.00;;;;;;;1.91;100.00;97917.66;5006768;28;20037;-78
2021/03/22 06:04:48;;;;;;;44.25;6.10;;;;;;;1.81;100.00;97915.69;5011771;28;20504;-78
2021/03/22 06:07:19;;;;;;;40.25;5.28;;;;;;;1.81;100.00;97910.34;5028422;28;20041;-78
2021/03/22 06:10:09;;;;;;;41.28;5.70;;;;;;;1.84;100.00;97919.72;5031550;28;20180;-78
2021/03/22 06:12:54;;;;;;;26.08;5.95;;;;;;;1.86;100.00;97925.59;5024319;28;20092;-78
2021/03/22 06:15:28;;;;;;;38.22;5.03;;;;;;;1.87;100.00;97924.56;5029583;28;20049;-78
2021/03/22 06:18:34;;;;;;;23.03;4.00;;;;;;;1.91;100.00;97927.53;5053184;28;20044;-77
2021/03/22 06:21:03;;;;;;;;;;;;;;;1.92;100.00;97937.94;5018790;28;20374;-78
2021/03/22 06:23:37;;;;;;;41.47;4.70;;;;;;;1.88;100.00;97926.97;5030986;28;19920;-78
2021/03/22 06:26:18;;;;;;;42.70;5.75;;;;;;;1.89;100.00;97925.91;5013971;28;20056;-78
2021/03/22 06:28:56;;;;;;;37.88;5.35;;;;;;;1.94;100.00;97927.81;5013394;28;20706;-78
2021/03/22 06:31:24;;;;;;;27.00;4.72;;;;;;;1.98;100.00;97933.47;5026282;28;20045;-78
2021/03/22 06:34:00;;;;;;;35.83;5.60;;;;;;;1.85;100.00;97940.84;5029241;28;20069;-77
2021/03/22 06:36:27;;;;;;;58.58;6.55;;;;;;;1.88;100.00;97936.84;5023599;28;20065;-78
2021/03/22 06:38:57;;;;;;;40.53;5.63;;;;;;;1.89;100.00;97935.78;5028121;28;20053;-78
2021/03/22 06:41:44;;;;;;;34.10;5.90;;;;;;;1.98;100.00;97944.97;4990454;28;20041;-79
2021/03/22 06:44:18;;;;;;;35.33;6.00;;;;;;;1.94;100.00;97943.06;4997909;28;20109;-78
2021/03/22 06:47:19;;;;;;;45.28;5.95;;;;;;;1.97;100.00;97939.84;4990164;28;20042;-78
2021/03/22 06:50:13;;;;;;;33.45;6.45;;;;;;;2.08;100.00;97953.06;5002603;28;20058;-78
2021/03/22 06:52:42;;;;;;;46.15;6.82;;;;;;;2.03;100.00;97936.19;4990131;28;20057;-78
2021/03/22 06:55:42;;;;;;;35.05;5.72;;;;;;;2.11;100.00;97944.56;5008077;28;20345;-78
2021/03/22 06:58:25;;;;;;;42.33;6.20;;;;;;;2.11;100.00;97960.56;4964002;28;20430;-78
2021/03/22 07:00:52;;;;;;;44.88;5.85;;;;;;;2.07;100.00;97962.13;5010647;28;20501;-79
2021/03/22 07:03:24;;;;;;;53.85;7.15;;;;;;;2.09;100.00;97946.66;4992492;28;20046;-79
2021/03/22 07:05:55;;;;;;;30.63;5.30;;;;;;;2.15;100.00;97960.88;5009142;28;20111;-79
2021/03/22 07:08:49;;;;;;;40.28;9.25;;;;;;;2.15;100.00;97968.88;5026865;28;20439;-78
2021/03/22 07:11:21;;;;;;;50.45;7.00;;;;;;;2.19;100.00;97962.78;5023300;28;20054;-78
2021/03/22 07:13:57;;;;;;;46.53;6.80;;;;;;;2.24;100.00;97967.38;5007823;28;20045;-79
2021/03/22 07:16:28;;;;;;;28.73;5.93;;;;;;;2.17;100.00;97975.56;5029677;28;20546;-78
2021/03/22 07:19:06;;;;;;;39.85;7.00;;;;;;;2.24;100.00;97976.19;5013002;28;20128;-78
2021/03/22 07:21:43;;;;;;;43.35;6.63;;;;;;;2.19;100.00;97976.16;4996652;28;20153;-78
2021/03/22 07:24:20;;;;;;;51.15;7.28;;;;;;;2.20;100.00;97974.25;5013289;28;20045;-78
2021/03/22 07:27:00;;;;;;;54.38;7.35;;;;;;;2.28;100.00;97979.97;5013704;28;20056;-78
2021/03/22 07:29:46;;;;;;;40.67;6.88;;;;;;;2.34;100.00;97988.84;4996965;28;20059;-79
2021/03/22 07:32:48;;;;;;;52.40;7.40;;;;;;;2.39;100.00;97991.53;5029485;28;20056;-78
2021/03/22 07:35:47;;;;;;;34.95;7.18;;;;;;;2.43;100.00;97996.13;5013503;28;20136;-78
2021/03/22 07:38:30;;;;;;;48.17;7.82;;;;;;;2.52;100.00;98004.50;4992784;28;20478;-79
2021/03/22 07:41:02;;;;;;;48.33;7.72;;;;;;;2.44;100.00;97997.75;5031032;28;20029;-79
2021/03/22 07:43:47;;;;;;;59.95;8.55;;;;;;;2.39;100.00;98004.91;4996797;28;20481;-78
2021/03/22 07:46:52;;;;;;;44.33;7.68;;;;;;;2.34;100.00;98008.34;5012307;28;20041;-79
2021/03/22 07:50:10;;;;;;;45.15;9.52;;;;;;;2.28;100.00;97998.66;5032149;28;20045;-79
2021/03/22 07:52:43;;;;;;;47.08;8.90;;;;;;;2.22;100.00;98004.22;4977729;28;20083;-78
2021/03/22 07:55:41;;;;;;;54.65;10.57;;;;;;;2.42;100.00;98009.75;4999738;28;20053;-79
2021/03/22 07:58:31;;;;;;;61.08;10.45;;;;;;;2.35;100.00;98009.13;5033365;28;20421;-79
2021/03/22 08:01:16;;;;;;;67.30;11.23;;;;;;;2.38;100.00;98008.63;5016808;28;20041;-79
2021/03/22 08:04:06;;;;;;;;;;;;;;;2.41;100.00;98002.78;5002910;28;20460;-79
2021/03/22 08:07:02;;;;;;;55.47;11.43;;;;;;;2.40;100.00;98023.34;5030769;28;19925;-79
2021/03/22 08:09:34;;;;;;;49.97;12.90;;;;;;;2.37;100.00;98020.38;5007320;28;20238;-78
2021/03/22 08:12:20;;;;;;;66.05;14.98;;;;;;;2.29;100.00;98018.97;5014286;28;20046;-79
2021/03/22 08:14:46;;;;;;;69.63;15.60;;;;;;;2.34;100.00;98027.03;4997749;28;20493;-79
2021/03/22 08:17:24;;;;;;;66.45;14.15;;;;;;;2.51;100.00;98026.91;4999895;28;20041;-78
2021/03/22 08:20:26;;;;;;;59.38;14.20;;;;;;;2.60;100.00;98035.28;4994666;28;20045;-78
2021/03/22 08:23:04;;;;;;;76.50;15.90;;;;;;;2.50;100.00;98036.00;5031483;28;20120;-79
2021/03/22 08:25:50;;;;;;;73.20;14.82;;;;;;;2.60;100.00;98036.09;5016137;28;20409;-79
2021/03/22 08:28:31;;;;;;;66.78;14.65;;;;;;;2.47;100.00;98039.19;5029460;28;20052;-79
2021/03/22 08:31:05;;;;;;;68.30;16.10;;;;;;;2.46;100.00;98040.22;5016779;28;20056;-79
2021/03/22 08:33:43;;;;;;;57.05;16.17;;;;;;;2.44;100.00;98040.50;5017159;28;20052;-79
2021/03/22 08:36:39;;;;;;;67.25;15.88;;;;;;;2.45;100.00;98044.75;5014548;28;20044;-78
2021/03/22 08:39:14;;;;;;;;;;;;;;;2.46;100.00;98038.38;5001500;28;20057;-79
2021/03/22 08:41:59;;;;;;;77.60;17.55;;;;;;;2.35;100.00;98046.53;5034840;28;19928;-79
2021/03/22 08:44:33;;;;;;;;;;;;;;;2.43;100.00;98062.09;5001656;28;20408;-79
2021/03/22 08:47:07;;;;;;;68.55;18.35;;;;;;;2.38;100.00;98057.53;5037136;28;19921;-79
2021/03/22 08:49:43;;;;;;;78.18;17.75;;;;;;;2.35;100.00;98051.88;5011386;28;20079;-79
2021/03/22 08:52:32;;;;;;;65.13;16.65;;;;;;;2.40;100.00;98060.75;5035211;28;20075;-78
2021/03/22 08:55:15;;;;;;;70.35;17.17;;;;;;;2.41;100.00;98062.38;5019796;28;20049;-79
2021/03/22 08:58:25;;;;;;;66.35;16.50;;;;;;;2.37;100.00;98060.47;5037048;28;20051;-79
2021/03/22 09:00:55;;;;;;;68.43;16.38;;;;;;;2.34;100.00;98075.13;4967743;28;20054;-79
2021/03/22 09:03:33;;;;;;;76.70;18.30;;;;;;;2.28;100.00;98067.28;5023815;28;20050;-78
2021/03/22 09:06:04;;;;;;;72.88;18.45;;;;;;;2.36;100.00;98075.66;5013824;28;20050;-79
2021/03/22 09:08:33;;;;;;;73.53;19.20;;;;;;;2.44;100.00;98083.25;4996929;28;20049;-79
2021/03/22 09:11:31;;;;;;;79.82;20.08;;;;;;;2.37;100.00;98093.31;5014689;28;20201;-79
2021/03/22 09:14:05;;;;;;;77.47;22.40;;;;;;;2.41;100.00;98094.44;5015816;28;20142;-79
2021/03/22 09:16:48;;;;;;;92.80;23.90;;;;;;;2.36;100.00;98093.56;5015454;28;20493;-79
2021/03/22 09:19:18;;;;;;;90.43;23.55;;;;;;;2.48;100.00;98091.53;5031901;28;20046;-79
2021/03/22 09:21:52;;;;;;;85.65;25.55;;;;;;;2.48;100.00;98095.03;5031431;28;20037;-78
2021/03/22 09:24:40;;;;;;;96.35;29.40;;;;;;;2.54;100.00;98095.88;5031355;28;20052;-79
2021/03/22 09:27:22;;;;;;;92.85;27.13;;;;;;;2.61;100.00;98082.34;5029079;28;20045;-79
2021/03/22 09:29:51;;;;;;;86.28;28.85;;;;;;;2.76;100.00;98079.81;5031815;28;20055;-79
2021/03/22 09:32:27;;;;;;;85.00;27.25;;;;;;;2.68;100.00;98078.41;5032702;28;20041;-79
2021/03/22 09:34:58;;;;;;;96.25;29.88;;;;;;;2.70;100.00;98086.16;5031095;28;20412;-78
2021/03/22 09:37:49;;;;;;;93.55;29.38;;;;;;;2.73;100.00;98088.34;5014158;28;20543;-79
2021/03/22 09:40:17;;;;;;;87.22;28.00;;;;;;;2.70;100.00;98099.53;5031396;28;20081;-79
2021/03/22 09:42:43;;;;;;;94.25;29.27;;;;;;;2.71;100.00;98090.47;5031752;28;20500;-79
2021/03/22 09:45:21;;;;;;;90.00;28.42;;;;;;;2.74;100.00;98096.09;5015145;28;20052;-79
2021/03/22 09:48:15;;;;;;;95.15;30.02;;;;;;;2.80;100.00;98102.28;5014795;28;20080;-79
2021/03/22 09:50:51;;;;;;;100.05;27.60;;;;;;;2.80;100.00;98096.94;5014436;28;20044;-79
2021/03/22 09:53:22;;;;;;;87.57;30.02;;;;;;;2.75;100.00;98092.38;5013485;28;20077;-78
2021/03/22 09:55:48;;;;;;;99.50;29.40;;;;;;;2.75;100.00;98100.38;5031592;28;20037;-78
2021/03/22 09:58:45;;;;;;;103.55;29.33;;;;;;;2.89;100.00;98111.47;5033330;28;20033;-79
2021/03/22 10:01:39;;;;;;;81.70;26.58;;;;;;;2.91;100.00;98099.47;5031692;28;20072;-78
2021/03/22 10:04:13;;;;;;;83.00;25.88;;;;;;;2.94;100.00;98103.50;4998894;28;20477;-79
2021/03/22 10:06:40;;;;;;;102.65;30.27;;;;;;;3.00;100.00;98107.81;5006805;28;20049;-78
2021/03/22 10:09:20;;;;;;;85.35;30.10;;;;;;;2.93;100.00;98099.19;5024436;28;20038;-79
2021/03/22 10:11:49;;;;;;;89.75;28.42;;;;;;;2.85;100.00;98107.69;5006811;28;20057;-78
2021/03/22 10:14:29;;;;;;;86.30;29.75;;;;;;;2.92;100.00;98106.41;5039500;28;20045;-78
2021/03/22 10:16:57;;;;;;;90.35;27.25;;;;;;;2.90;100.00;98103.19;5021771;28;20048;-78
2021/03/22 10:19:28;;;;;;;79.68;27.00;;;;;;;2.99;100.00;98108.88;5022032;28;20064;-78
2021/03/22 10:21:59;;;;;;;88.68;26.83;;;;;;;3.01;100.00;98112.09;5022496;28;20034;-78
2021/03/22 10:24:26;;;;;;;90.65;27.08;;;;;;;3.09;100.00;98101.75;5020781;28;20047;-78
2021/03/22 10:26:56;;;;;;;80.55;24.75;;;;;;;3.27;100.00;98097.88;5022730;28;20128;-79
2021/03/22 10:29:22;;;;;;;93.35;25.95;;;;;;;3.54;100.00;98101.28;5016087;28;20210;-78
2021/03/22 10:32:03;;;;;;;85.28;24.73;;;;;;;3.82;100.00;98092.06;5012996;28;20416;-78
2021/03/22 10:34:53;;;;;;;70.40;22.83;;;;;;;3.91;100.00;98097.72;5030910;28;20400;-78
2021/03/22 10:37:28;;;;;;;64.82;22.15;;;;;;;4.13;100.00;98103.75;5013088;28;20061;-78
2021/03/22 10:40:03;;;;;;;55.72;20.05;;;;;;;4.44;100.00;98096.59;5014230;28;20034;-78
2021/03/22 10:42:29;;;;;;;71.07;18.63;;;;;;;4.65;100.00;98095.56;5031566;28;20052;-78
2021/03/22 10:44:57;;;;;;;57.40;17.65;;;;;;;4.91;100.00;98092.66;5031480;28;20452;-79
2021/03/22 10:47:30;;;;;;;61.85;17.52;;;;;;;5.46;100.00;98081.13;5031578;28;20037;-78
2021/03/22 10:50:21;;;;;;;65.80;17.92;;;;;;;6.26;100.00;98081.97;5026896;28;20076;-77
2021/03/22 10:53:10;;;;;;;55.05;15.27;;;;;;;5.95;100.00;98085.88;5030782;28;20048;-78
2021/03/22 10:55:39;;;;;;;54.78;16.45;;;;;;;6.20;100.00;98091.13;5030530;28;20042;-76
2021/03/22 10:58:33;;;;;;;63.53;17.17;;;;;;;6.12;100.00;98078.25;5012187;28;20496;-77
2021/03/22 11:01:07;;;;;;;49.75;15.43;;;;;;;7.04;100.00;98088.25;5029910;28;20247;-77
2021/03/22 11:03:35;;;;;;;53.40;14.23;;;;;;;6.76;100.00;98089.75;5028383;28;20480;-78
2021/03/22 11:06:13;;;;;;;47.22;13.15;;;;;;;6.60;100.00;98082.88;5033391;28;20045;-78
2021/03/22 11:08:43;;;;;;;40.30;12.80;;;;;;;6.63;100.00;98093.06;5034953;28;20365;-78
2021/03/22 11:11:18;;;;;;;44.67;11.45;;;;;;;6.99;100.00;98085.59;5053327;28;20119;-78
2021/03/22 11:13:49;;;;;;;47.47;12.57;;;;;;;6.67;100.00;98088.75;5034378;28;20568;-77
2021/03/22 11:16:24;;;;;;;52.13;14.70;;;;;;;7.60;100.00;98093.13;5046238;28;20049;-81
2021/03/22 11:18:52;;;;;;;40.13;11.65;;;;;;;7.48;100.00;98096.22;5036257;28;20059;-76
2021/03/22 11:21:24;;;;;;;48.33;11.68;;;;;;;7.25;100.00;98078.91;5035744;28;20048;-78
2021/03/22 11:23:54;;;;;;;50.47;12.80;;;;;;;6.74;100.00;98093.81;5014163;28;20033;-77
2021/03/22 11:26:29;;;;;;;43.75;12.15;;;;;;;6.88;100.00;98102.88;5013234;28;20056;-78
2021/03/22 11:29:26;;;;;;;45.22;12.45;;;;;;;5.93;100.00;98099.59;5011442;28;20071;-77
2021/03/22 11:32:01;;;;;;;;;;;;;;;5.68;100.00;98104.97;5018653;28;20042;-78
2021/03/22 11:34:48;;;;;;;43.00;12.25;;;;;;;5.42;100.00;98101.50;5041939;28;20328;-77
2021/03/22 11:37:27;;;;;;;43.97;12.20;;;;;;;5.63;100.00;98103.09;5002387;28;20060;-76
2021/03/22 11:40:02;;;;;;;39.50;11.75;;;;;;;5.86;100.00;98106.31;5027618;28;20033;-78
2021/03/22 11:43:14;;;;;;;45.65;11.73;;;;;;;5.42;100.00;98096.13;5028266;28;20073;-77
2021/03/22 11:45:45;;;;;;;46.28;11.75;;;;;;;5.20;100.00;98101.00;5006483;28;20152;-77
2021/03/22 11:48:21;;;;;;;48.83;12.63;;;;;;;5.19;100.00;98103.97;5022001;28;20076;-78
2021/03/22 11:51:02;;;;;;;44.10;11.93;;;;;;;5.26;100.00;98112.53;5022870;28;20061;-78
2021/03/22 11:53:29;;;;;;;46.65;13.48;;;;;;;5.54;100.00;98102.06;5015483;28;20055;-77
2021/03/22 11:56:14;;;;;;;44.83;11.52;;;;;;;5.66;100.00;98099.88;5031301;28;20096;-78
2021/03/22 11:58:46;;;;;;;47.17;11.52;;;;;;;5.52;100.00;98096.13;5016625;28;20582;-78
2021/03/22 12:01:18;;;;;;;45.15;11.27;;;;;;;5.54;100.00;98103.94;5012812;28;20050;-77
2021/03/22 12:04:05;;;;;;;38.78;11.32;;;;;;;5.52;100.00;98108.78;5012177;28;20694;-78